createdAt,value
2023-07-10T00:01:40.489Z,13.60
2023-07-10T00:04:23.452Z,14.10
2023-07-10T00:06:58.149Z,10.10
2023-07-10T00:09:33.722Z,13.30
2023-07-10T00:12:20.026Z,10.50
2023-07-10T00:14:56.314Z,10.90
2023-07-10T00:17:36.630Z,9.30
2023-07-10T00:20:18.444Z,9.90
2023-07-10T00:22:52.273Z,10.10
2023-07-10T00:25:27.560Z,10.20
2023-07-10T00:28:02.583Z,10.80
2023-07-10T00:30:46.966Z,11.10
2023-07-10T00:33:24.306Z,11.90
2023-07-10T00:35:59.348Z,11.80
2023-07-10T00:38:36.933Z,12.10
2023-07-10T00:41:12.032Z,11.10
2023-07-10T00:43:49.865Z,10.50
2023-07-10T00:46:36.206Z,11.10
2023-07-10T00:49:20.258Z,12.30
2023-07-10T00:52:02.539Z,9.60
2023-07-10T00:54:42.332Z,9.10
2023-07-10T00:57:18.278Z,10.50
2023-07-10T00:59:56.958Z,10.70
2023-07-10T01:02:33.137Z,12.10
2023-07-10T01:05:15.080Z,9.60
2023-07-10T01:07:57.523Z,11.10
2023-07-10T01:10:31.644Z,11.30
2023-07-10T01:13:06.523Z,9.60
2023-07-10T01:15:41.598Z,9.10
2023-07-10T01:18:17.071Z,9.80
2023-07-10T01:20:54.094Z,8.30
2023-07-10T01:23:28.743Z,10.30
2023-07-10T01:26:07.297Z,9.50
2023-07-10T01:28:43.921Z,9.40
2023-07-10T01:31:22.901Z,9.60
2023-07-10T01:33:59.666Z,11.00
2023-07-10T01:36:38.317Z,12.80
2023-07-10T01:39:38.954Z,9.80
2023-07-10T01:42:15.340Z,12.00
2023-07-10T01:44:54.991Z,9.10
2023-07-10T01:47:28.701Z,9.90
2023-07-10T01:50:05.198Z,12.30
2023-07-10T01:52:40.507Z,12.60
2023-07-10T01:55:21.956Z,13.70
2023-07-10T01:57:56.785Z,13.70
2023-07-10T02:00:32.918Z,11.10
2023-07-10T02:03:07.029Z,12.90
2023-07-10T02:05:40.815Z,10.50
2023-07-10T02:08:17.124Z,13.20
2023-07-10T02:10:53.833Z,10.70
2023-07-10T02:13:32.663Z,11.90
2023-07-10T02:16:14.204Z,12.50
2023-07-10T02:18:49.900Z,16.80
2023-07-10T02:21:26.074Z,16.60
2023-07-10T02:24:03.570Z,18.70
2023-07-10T02:26:40.380Z,19.70
2023-07-10T02:29:16.800Z,16.10
2023-07-10T02:31:53.062Z,17.40
2023-07-10T02:34:28.178Z,11.70
2023-07-10T02:37:04.823Z,12.20
2023-07-10T02:39:40.140Z,10.80
2023-07-10T02:42:15.626Z,11.80
2023-07-10T02:44:50.894Z,12.00
2023-07-10T02:47:25.586Z,13.50
2023-07-10T02:50:01.451Z,14.10
2023-07-10T02:52:39.442Z,15.80
2023-07-10T02:55:16.566Z,16.40
2023-07-10T02:57:52.349Z,16.50
2023-07-10T03:00:28.357Z,16.80
2023-07-10T03:03:04.872Z,11.50
2023-07-10T03:05:42.471Z,10.40
2023-07-10T03:08:16.269Z,9.70
2023-07-10T03:10:52.224Z,9.80
2023-07-10T03:13:30.888Z,9.60
2023-07-10T03:16:10.682Z,7.50
2023-07-10T03:18:45.499Z,8.30
2023-07-10T03:21:23.106Z,11.10
2023-07-10T03:23:58.900Z,8.70
2023-07-10T03:26:35.317Z,11.30
2023-07-10T03:29:14.578Z,10.00
2023-07-10T03:31:59.861Z,11.00
2023-07-10T03:34:38.677Z,8.70
2023-07-10T03:37:14.703Z,14.70
2023-07-10T03:39:51.086Z,11.10
2023-07-10T03:42:27.365Z,10.10
2023-07-10T03:45:02.677Z,9.00
2023-07-10T03:47:36.745Z,8.70
2023-07-10T03:50:16.693Z,12.80
2023-07-10T03:52:51.928Z,11.60
2023-07-10T03:55:26.623Z,9.70
2023-07-10T03:58:02.009Z,10.40
2023-07-10T04:00:39.643Z,12.30
2023-07-10T04:03:15.074Z,12.10
2023-07-10T04:05:50.221Z,13.80
2023-07-10T04:08:26.342Z,13.10
2023-07-10T04:11:03.651Z,16.00
2023-07-10T04:13:38.773Z,17.30
2023-07-10T04:16:18.306Z,20.30
2023-07-10T04:18:57.820Z,23.40
2023-07-10T04:21:36.262Z,22.80
2023-07-10T04:24:15.004Z,20.50
2023-07-10T04:26:51.731Z,20.00
2023-07-10T04:29:28.118Z,19.50
2023-07-10T04:32:02.903Z,15.70
2023-07-10T04:34:38.384Z,15.10
2023-07-10T04:37:14.042Z,15.10
2023-07-10T04:39:49.470Z,16.20
2023-07-10T04:42:25.286Z,21.80
2023-07-10T04:45:02.695Z,19.80
2023-07-10T04:47:46.260Z,23.10
2023-07-10T04:50:20.809Z,22.40
2023-07-10T04:52:57.289Z,22.40
2023-07-10T04:55:32.285Z,23.50
2023-07-10T04:58:09.656Z,25.30
2023-07-10T05:01:00.149Z,23.20
2023-07-10T05:03:37.854Z,21.90
2023-07-10T05:06:12.313Z,19.40
2023-07-10T05:08:50.977Z,17.30
2023-07-10T05:11:29.081Z,13.30
2023-07-10T05:14:03.314Z,13.20
2023-07-10T05:16:42.661Z,11.30
2023-07-10T05:19:26.250Z,10.10
2023-07-10T05:22:01.772Z,7.00
2023-07-10T05:24:40.823Z,7.10
2023-07-10T05:27:16.176Z,7.80
2023-07-10T05:29:58.549Z,8.10
2023-07-10T05:32:35.242Z,7.30
2023-07-10T05:35:12.148Z,6.70
2023-07-10T05:37:46.781Z,6.60
2023-07-10T05:40:25.831Z,7.90
2023-07-10T05:43:07.712Z,7.30
2023-07-10T05:45:45.232Z,6.20
2023-07-10T05:48:20.120Z,7.80
2023-07-10T05:50:55.755Z,7.40
2023-07-10T05:53:30.830Z,8.00
2023-07-10T05:56:07.145Z,7.70
2023-07-10T05:58:44.273Z,7.20
2023-07-10T06:01:26.266Z,9.30
2023-07-10T06:04:01.654Z,7.90
2023-07-10T06:06:57.241Z,8.60
2023-07-10T06:09:34.396Z,7.60
2023-07-10T06:12:13.097Z,8.30
2023-07-10T06:14:49.756Z,11.00
2023-07-10T06:17:24.602Z,9.90
2023-07-10T06:20:01.434Z,7.80
2023-07-10T06:22:36.760Z,7.40
2023-07-10T06:25:13.370Z,7.30
2023-07-10T06:27:51.574Z,7.60
2023-07-10T06:30:27.654Z,5.60
2023-07-10T06:33:04.406Z,7.40
2023-07-10T06:35:40.735Z,7.00
2023-07-10T06:38:15.187Z,7.20
2023-07-10T06:40:53.394Z,5.40
2023-07-10T06:43:29.251Z,5.60
2023-07-10T06:46:04.456Z,5.90
2023-07-10T06:48:40.883Z,5.30
2023-07-10T06:51:15.609Z,4.00
2023-07-10T06:53:49.691Z,4.50
2023-07-10T06:56:25.604Z,4.50
2023-07-10T06:59:02.127Z,4.60
2023-07-10T07:01:37.020Z,5.70
2023-07-10T07:04:14.531Z,5.80
2023-07-10T07:06:50.796Z,5.70
2023-07-10T07:09:26.572Z,5.40
2023-07-10T07:12:02.613Z,5.10
2023-07-10T07:14:37.340Z,7.30
2023-07-10T07:17:11.685Z,5.70
2023-07-10T07:19:47.605Z,6.10
2023-07-10T07:22:21.762Z,4.70
2023-07-10T07:24:58.529Z,5.00
2023-07-10T07:27:33.501Z,6.30
2023-07-10T07:30:13.220Z,9.00
2023-07-10T07:32:50.945Z,5.60
2023-07-10T07:35:25.039Z,6.50
2023-07-10T07:38:01.756Z,8.10
2023-07-10T07:40:36.517Z,3.70
2023-07-10T07:43:13.464Z,6.60
2023-07-10T07:45:58.039Z,4.10
2023-07-10T07:48:31.918Z,3.50
2023-07-10T07:51:10.260Z,5.30
2023-07-10T07:53:46.100Z,6.90
2023-07-10T07:56:21.714Z,5.70
2023-07-10T07:58:57.339Z,3.50
2023-07-10T08:01:34.105Z,5.70
2023-07-10T08:04:09.409Z,6.40
2023-07-10T08:06:44.825Z,7.80
2023-07-10T08:09:20.887Z,4.60
2023-07-10T08:11:58.007Z,5.90
2023-07-10T08:14:34.359Z,4.60
2023-07-10T08:17:09.796Z,4.10
2023-07-10T08:19:46.967Z,6.40
2023-07-10T08:22:22.455Z,4.70
2023-07-10T08:24:57.984Z,7.90
2023-07-10T08:27:31.834Z,5.90
2023-07-10T08:30:07.339Z,23.60
2023-07-10T08:32:43.441Z,4.80
2023-07-10T08:35:17.806Z,7.00
2023-07-10T08:37:52.866Z,3.90
2023-07-10T08:40:33.033Z,5.60
2023-07-10T08:43:19.411Z,4.00
2023-07-10T08:45:59.937Z,6.20
2023-07-10T08:48:37.924Z,5.30
2023-07-10T08:51:29.554Z,6.20
2023-07-10T08:54:09.754Z,4.20
2023-07-10T08:56:49.599Z,5.30
2023-07-10T09:02:38.305Z,3.50
2023-07-10T09:05:22.029Z,5.50
2023-07-10T09:07:59.811Z,4.30
2023-07-10T09:10:40.204Z,6.30
2023-07-10T09:13:27.408Z,5.10
2023-07-10T09:16:05.243Z,3.90
2023-07-10T09:18:51.095Z,6.00
2023-07-10T09:21:33.960Z,4.70
2023-07-10T09:24:29.101Z,7.80
2023-07-10T09:27:04.317Z,4.90
2023-07-10T09:29:41.924Z,7.10
2023-07-10T09:32:20.184Z,6.30
2023-07-10T09:35:00.875Z,4.90
2023-07-10T09:37:39.990Z,4.50
2023-07-10T09:40:45.553Z,4.50
2023-07-10T09:43:22.989Z,5.50
2023-07-10T09:46:04.617Z,4.50
2023-07-10T09:48:40.994Z,4.50
2023-07-10T09:51:18.532Z,4.10
2023-07-10T09:54:05.519Z,4.60
2023-07-10T09:56:41.781Z,5.00
2023-07-10T09:59:25.320Z,4.40
2023-07-10T10:02:05.678Z,4.00
2023-07-10T10:04:40.500Z,4.00
2023-07-10T10:07:24.960Z,4.90
2023-07-10T10:10:25.116Z,8.20
2023-07-10T10:13:15.157Z,4.60
2023-07-10T10:15:54.578Z,4.30
2023-07-10T10:18:43.209Z,3.50
2023-07-10T10:21:21.635Z,3.70
2023-07-10T10:24:00.443Z,6.80
2023-07-10T10:26:51.621Z,6.10
2023-07-10T10:29:51.922Z,3.90
2023-07-10T10:32:35.395Z,2.80
2023-07-10T10:35:17.838Z,4.70
2023-07-10T10:38:06.626Z,3.80
2023-07-10T10:40:51.724Z,4.50
2023-07-10T10:43:46.138Z,4.50
2023-07-10T10:46:29.729Z,3.90
2023-07-10T10:49:29.366Z,3.90
2023-07-10T10:52:12.545Z,3.90
2023-07-10T10:54:58.960Z,4.20
2023-07-10T10:57:44.957Z,3.10
2023-07-10T11:00:41.334Z,3.80
2023-07-10T11:03:27.518Z,3.50
2023-07-10T11:06:17.215Z,4.80
2023-07-10T11:08:56.252Z,3.70
2023-07-10T11:11:33.644Z,5.20
2023-07-10T11:14:09.146Z,3.80
2023-07-10T11:16:44.166Z,4.30
2023-07-10T11:19:25.797Z,5.60
2023-07-10T11:22:11.158Z,3.20
2023-07-10T11:24:54.114Z,4.10
2023-07-10T11:27:39.572Z,6.50
2023-07-10T11:30:21.445Z,6.40
2023-07-10T11:33:06.820Z,4.90
2023-07-10T11:36:23.928Z,10.80
2023-07-10T11:39:13.593Z,3.40
2023-07-10T11:42:14.928Z,13.90
2023-07-10T11:45:02.031Z,5.40
2023-07-10T11:47:40.019Z,4.60
2023-07-10T11:50:28.669Z,7.80
2023-07-10T11:53:24.672Z,4.20
2023-07-10T11:56:10.152Z,4.00
2023-07-10T11:58:44.813Z,4.10
2023-07-10T12:01:24.577Z,4.20
2023-07-10T12:04:00.091Z,6.70
2023-07-10T12:06:37.083Z,4.10
2023-07-10T12:09:15.760Z,6.10
2023-07-10T12:11:57.286Z,6.80
2023-07-10T12:14:34.048Z,5.80
2023-07-10T12:20:28.274Z,5.60
2023-07-10T12:23:06.620Z,4.10
2023-07-10T12:25:41.440Z,3.90
2023-07-10T12:28:26.984Z,4.00
2023-07-10T12:31:14.821Z,3.80
2023-07-10T12:33:54.800Z,5.90
2023-07-10T12:36:34.983Z,3.90
2023-07-10T12:39:11.772Z,5.10
2023-07-10T12:41:48.605Z,4.80
2023-07-10T12:44:28.241Z,5.10
2023-07-10T12:47:15.816Z,3.80
2023-07-10T12:50:01.132Z,5.50
2023-07-10T12:52:41.451Z,3.30
2023-07-10T12:55:23.646Z,4.20
2023-07-10T12:58:04.078Z,3.40
2023-07-10T13:00:52.363Z,5.50
2023-07-10T13:03:33.891Z,4.40
2023-07-10T13:06:16.023Z,3.40
2023-07-10T13:08:53.569Z,4.50
2023-07-10T13:11:41.271Z,4.10
2023-07-10T13:14:28.984Z,3.60
2023-07-10T13:17:04.073Z,3.30
2023-07-10T13:19:41.442Z,6.70
2023-07-10T13:22:22.199Z,7.80
2023-07-10T13:24:56.755Z,4.80
2023-07-10T13:27:31.067Z,5.30
2023-07-10T13:30:19.785Z,5.00
2023-07-10T13:32:53.758Z,3.20
2023-07-10T13:35:28.044Z,5.30
2023-07-10T13:38:03.144Z,5.90
2023-07-10T13:40:37.481Z,4.80
2023-07-10T13:43:18.435Z,3.90
2023-07-10T13:45:57.045Z,4.00
2023-07-10T13:48:31.853Z,4.40
2023-07-10T13:51:06.744Z,6.90
2023-07-10T13:53:41.573Z,4.50
2023-07-10T13:56:20.682Z,9.60
2023-07-10T13:58:56.859Z,6.70
2023-07-10T14:01:35.116Z,7.80
2023-07-10T14:04:09.869Z,6.50
2023-07-10T14:06:48.265Z,10.90
2023-07-10T14:09:22.491Z,10.90
2023-07-10T14:11:58.305Z,13.60
2023-07-10T14:14:33.202Z,13.20
2023-07-10T14:17:14.011Z,10.50
2023-07-10T14:19:49.561Z,6.30
2023-07-10T14:22:22.650Z,8.80
2023-07-10T14:24:55.746Z,5.70
2023-07-10T14:27:31.224Z,4.90
2023-07-10T14:30:05.550Z,6.40
2023-07-10T14:32:40.783Z,6.20
2023-07-10T14:35:21.218Z,4.90
2023-07-10T14:37:58.454Z,5.90
2023-07-10T14:40:34.630Z,7.40
2023-07-10T14:43:11.872Z,6.40
2023-07-10T14:45:50.569Z,6.70
2023-07-10T14:48:29.260Z,4.80
2023-07-10T14:51:02.440Z,7.00
2023-07-10T14:53:39.185Z,3.60
2023-07-10T14:56:19.627Z,5.90
2023-07-10T14:58:54.369Z,7.90
2023-07-10T15:01:32.117Z,7.40
2023-07-10T15:04:09.674Z,4.90
2023-07-10T15:06:46.843Z,8.90
2023-07-10T15:09:21.529Z,6.90
2023-07-10T15:11:56.260Z,13.30
2023-07-10T15:14:30.701Z,10.90
2023-07-10T15:17:04.859Z,10.70
2023-07-10T15:19:43.341Z,4.40
2023-07-10T15:22:19.688Z,5.00
2023-07-10T15:24:55.015Z,6.60
2023-07-10T15:27:31.148Z,6.30
2023-07-10T15:30:06.780Z,7.20
2023-07-10T15:32:43.951Z,5.50
2023-07-10T15:35:22.639Z,13.30
2023-07-10T15:37:59.341Z,5.60
2023-07-10T15:40:37.585Z,8.30
2023-07-10T15:43:24.520Z,7.10
2023-07-10T15:46:01.924Z,5.20
2023-07-10T15:48:36.905Z,5.70
2023-07-10T15:51:24.542Z,9.50
2023-07-10T15:53:59.499Z,5.50
2023-07-10T15:56:35.234Z,5.00
2023-07-10T15:59:16.285Z,4.20
2023-07-10T16:01:55.164Z,4.60
2023-07-10T16:04:29.270Z,4.10
2023-07-10T16:07:05.154Z,13.70
2023-07-10T16:09:39.884Z,6.00
2023-07-10T16:12:22.225Z,3.70
2023-07-10T16:14:55.939Z,5.60
2023-07-10T16:17:29.583Z,5.20
2023-07-10T16:20:04.892Z,5.50
2023-07-10T16:22:38.490Z,4.20
2023-07-10T16:25:18.516Z,5.20
2023-07-10T16:27:53.774Z,4.80
2023-07-10T16:30:31.127Z,3.30
2023-07-10T16:33:07.545Z,8.00
2023-07-10T16:35:43.172Z,5.00
2023-07-10T16:38:20.620Z,6.50
2023-07-10T16:40:59.358Z,5.70
2023-07-10T16:43:36.859Z,4.60
2023-07-10T16:46:11.897Z,5.20
2023-07-10T16:48:49.146Z,4.00
2023-07-10T16:51:29.777Z,4.60
2023-07-10T16:54:05.193Z,4.50
2023-07-10T16:56:39.806Z,5.20
2023-07-10T16:59:15.515Z,3.90
2023-07-10T17:01:51.759Z,3.60
2023-07-10T17:04:26.828Z,4.20
2023-07-10T17:07:06.171Z,4.00
2023-07-10T17:09:43.298Z,4.80
2023-07-10T17:12:21.878Z,5.70
2023-07-10T17:14:56.802Z,6.70
2023-07-10T17:17:31.522Z,4.40
2023-07-10T17:20:05.357Z,4.80
2023-07-10T17:22:41.623Z,5.00
2023-07-10T17:25:23.519Z,2.80
2023-07-10T17:27:58.832Z,5.60
2023-07-10T17:30:33.435Z,4.20
2023-07-10T17:33:36.601Z,5.90
2023-07-10T17:36:14.132Z,4.00
2023-07-10T17:38:49.879Z,5.80
2023-07-10T17:41:26.131Z,4.90
2023-07-10T17:44:03.937Z,5.10
2023-07-10T17:46:37.907Z,5.20
2023-07-10T17:49:15.575Z,4.80
2023-07-10T17:51:49.534Z,9.00
2023-07-10T17:54:28.166Z,6.40
2023-07-10T17:57:03.404Z,6.20
2023-07-10T17:59:37.099Z,7.90
2023-07-10T18:02:23.812Z,8.40
2023-07-10T18:04:59.837Z,7.80
2023-07-10T18:07:35.230Z,9.90
2023-07-10T18:10:13.976Z,7.40
2023-07-10T18:12:49.529Z,7.30
2023-07-10T18:15:24.884Z,6.00
2023-07-10T18:17:58.700Z,4.40
2023-07-10T18:20:34.163Z,4.20
2023-07-10T18:23:21.822Z,5.40
2023-07-10T18:26:00.564Z,6.60
2023-07-10T18:28:34.264Z,4.40
2023-07-10T18:31:20.950Z,6.80
2023-07-10T18:33:58.887Z,8.70
2023-07-10T18:36:36.449Z,7.00
2023-07-10T18:39:11.353Z,5.30
2023-07-10T18:41:50.351Z,4.10
2023-07-10T18:44:24.859Z,6.20
2023-07-10T18:46:58.799Z,6.00
2023-07-10T18:49:33.504Z,5.70
2023-07-10T18:52:18.204Z,5.90
2023-07-10T18:54:52.954Z,4.30
2023-07-10T18:57:28.919Z,5.30
2023-07-10T19:00:08.838Z,8.00
2023-07-10T19:02:45.288Z,5.90
2023-07-10T19:05:19.755Z,6.20
2023-07-10T19:07:55.487Z,5.50
2023-07-10T19:10:29.653Z,5.80
2023-07-10T19:13:07.536Z,4.80
2023-07-10T19:15:41.995Z,5.10
2023-07-10T19:18:38.573Z,8.30
2023-07-10T19:21:16.803Z,6.70
2023-07-10T19:23:52.629Z,4.20
2023-07-10T19:26:28.049Z,6.10
2023-07-10T19:29:03.260Z,5.70
2023-07-10T19:31:38.624Z,6.30
2023-07-10T19:34:17.414Z,7.20
2023-07-10T19:36:55.708Z,5.10
2023-07-10T19:39:33.038Z,5.30
2023-07-10T19:42:09.505Z,5.10
2023-07-10T19:44:55.288Z,4.50
2023-07-10T19:47:30.918Z,3.90
2023-07-10T19:50:09.174Z,4.30
2023-07-10T19:52:44.951Z,4.70
2023-07-10T19:55:23.831Z,7.00
2023-07-10T19:58:00.295Z,4.90
2023-07-10T20:00:34.681Z,4.20
2023-07-10T20:03:15.960Z,5.90
2023-07-10T20:05:50.895Z,6.20
2023-07-10T20:08:27.018Z,9.80
2023-07-10T20:11:07.689Z,12.60
2023-07-10T20:13:46.135Z,6.80
2023-07-10T20:16:28.415Z,6.80
2023-07-10T20:19:02.963Z,7.90
2023-07-10T20:21:40.601Z,5.10
2023-07-10T20:24:17.432Z,5.00
2023-07-10T20:26:57.029Z,4.70
2023-07-10T20:29:32.795Z,4.80
2023-07-10T20:32:07.895Z,5.20
2023-07-10T20:34:51.719Z,5.70
2023-07-10T20:37:27.604Z,5.00
2023-07-10T20:40:04.294Z,7.10
2023-07-10T20:42:41.739Z,5.70
2023-07-10T20:45:20.365Z,5.20
2023-07-10T20:47:58.125Z,4.20
2023-07-10T20:50:35.289Z,7.90
2023-07-10T20:53:17.045Z,5.60
2023-07-10T20:55:54.491Z,6.50
2023-07-10T20:58:31.046Z,5.90
2023-07-10T21:01:05.385Z,4.90
2023-07-10T21:03:42.478Z,6.00
2023-07-10T21:06:23.157Z,4.40
2023-07-10T21:09:01.055Z,5.70
2023-07-10T21:11:37.073Z,5.60
2023-07-10T21:14:15.065Z,6.60
2023-07-10T21:16:49.109Z,4.60
2023-07-10T21:19:29.402Z,4.10
2023-07-10T21:22:02.890Z,4.40
2023-07-10T21:24:40.089Z,4.60
2023-07-10T21:27:25.446Z,6.10
2023-07-10T21:30:04.417Z,5.40
2023-07-10T21:32:38.271Z,5.80
2023-07-10T21:35:27.681Z,4.60
2023-07-10T21:38:03.984Z,4.70
2023-07-10T21:40:41.240Z,4.80
2023-07-10T21:43:21.326Z,4.50
2023-07-10T21:46:02.513Z,5.10
2023-07-10T21:48:37.984Z,4.60
2023-07-10T21:51:17.324Z,3.90
2023-07-10T21:53:53.084Z,7.90
2023-07-10T21:56:32.232Z,4.50
2023-07-10T21:59:08.811Z,5.90
2023-07-10T22:01:45.059Z,3.90
2023-07-10T22:04:20.042Z,5.70
2023-07-10T22:06:55.386Z,5.60
2023-07-10T22:09:29.897Z,5.60
2023-07-10T22:12:04.469Z,4.40
2023-07-10T22:14:39.797Z,6.20
2023-07-10T22:17:21.430Z,4.60
2023-07-10T22:19:57.928Z,4.20
2023-07-10T22:22:33.097Z,6.20
2023-07-10T22:25:10.468Z,4.90
2023-07-10T22:27:48.378Z,5.20
2023-07-10T22:30:23.824Z,3.40
2023-07-10T22:33:03.053Z,4.10
2023-07-10T22:35:39.258Z,5.10
2023-07-10T22:38:16.666Z,4.80
2023-07-10T22:40:54.192Z,3.90
2023-07-10T22:43:33.025Z,5.80
2023-07-10T22:46:17.861Z,4.50
2023-07-10T22:48:53.028Z,5.40
2023-07-10T22:51:31.693Z,7.60
2023-07-10T22:54:07.181Z,5.80
2023-07-10T22:56:46.294Z,4.20
2023-07-10T22:59:23.996Z,4.50
2023-07-10T23:01:59.735Z,7.20
2023-07-10T23:04:36.075Z,4.30
2023-07-10T23:07:09.785Z,4.10
2023-07-10T23:09:45.360Z,4.20
2023-07-10T23:12:19.956Z,3.30
2023-07-10T23:14:55.323Z,3.70
2023-07-10T23:17:32.331Z,4.90
2023-07-10T23:20:17.107Z,4.90
2023-07-10T23:22:51.094Z,5.90
2023-07-10T23:25:27.442Z,6.30
2023-07-10T23:28:01.529Z,5.80
2023-07-10T23:30:36.643Z,6.70
2023-07-10T23:33:11.217Z,7.70
2023-07-10T23:35:48.146Z,8.70
2023-07-10T23:38:22.304Z,10.40
2023-07-10T23:40:57.379Z,10.40
2023-07-10T23:43:34.117Z,10.80
2023-07-10T23:46:09.773Z,9.60
2023-07-10T23:48:47.038Z,7.50
2023-07-10T23:51:23.598Z,6.30
2023-07-10T23:53:58.514Z,6.50
2023-07-10T23:56:33.544Z,4.30
2023-07-10T23:59:10.574Z,4.20
